Arden, Nevada
Current Conditions -  °F | °C
As of 3:56 AM on Thursday 18 Dec 2014 (Local Time) from KLAS Reporting Station
Broken Clouds Broken Clouds  
Wind Chill:   Ceiling: 10000
Heat Index:   Visibility: 10mi
Dew Point:   Wind: 8mph
Humidity: 83%   Direction: 210°SSW
Pressure: 30.06"   Gusts: NA
Location:  36.079°N, 115.211°W
Report Text: KLAS 181156Z 21007KT 10SM FEW022 BKN100 BKN150 08/05 A3006 RMK AO2 SLP177 MTNS OBSCD DSNT SW-NW T00780050 10100 20078 51005 $
Loading
Personal Weather Stations






























Interactive Weather Map New forecast layout! Learn more

10-Day Weather Forecast

Advertisements
Track Severe Weather on mobile